Detall de PIREP

Printer-friendly versionPDF version

[2013/11/05 08:46:00]
Flight IATA:CT3215
Pilot Number:042
Company ICAO:CAT
Aircraft Type:B738/F
PAX:108
Departing Airport: EKCH
Destination Airport: LEPA
Alternate Airport:LEBL
Online: VATSIM
Route:NEXEN T503 MIC UN850 NATOR UN869 MILPA UN852 VERSO UL129 LUNIK
Flight Level:F350
No Slew and time accel
No pause
Crash detect
Detect pilot in Cockpit between each 30 and 45 minutes
08:46 Zero fuel Weight: 121806 Lbs, Fuel Weight: 45533 Lbs
08:46 VATSIM:EKCH 050820Z 24015KT 9999 FEW012 08/06 Q0988 NOSIG
08:46 VATSIM:LEPA 050830Z 00000KT 9999 -RA FEW026 BKN044 20/15 Q1010 NOSIG
08:46 VOICE CATALONIAN
08:54 Parking Brakes off
09:06 Take-off
09:06 Take off Weight: 166241 Lbs
09:06 Wind: 248º @ 015 Knots Heading: 222º
09:06 POS N55º 36´ 13´´ E012º 37´ 17´´
09:06 Flaps:3 at 173 Knots
09:06 Gear Up: 173 Knots
09:06 Flaps:2 at 178 Knots
09:07 Flaps:1 at 187 Knots
09:08 Flaps:0 at 237 Knots
09:21 Wind:241º@010 Knots Heading: 215º Ground Speed: 444 Knots Altitude 22066 ft
09:36 Wind:247º@011 Knots Heading: 202º Ground Speed: 481 Knots Altitude 26033 ft
09:51 Wind:205º@008 Knots Heading: 188º Ground Speed: 484 Knots Altitude 26696 ft
10:06 Wind:221º@009 Knots Heading: 192º Ground Speed: 485 Knots Altitude 27132 ft
10:21 Wind:267º@004 Knots Heading: 231º Ground Speed: 465 Knots Altitude 33500 ft
10:36 Wind:181º@002 Knots Heading: 187º Ground Speed: 499 Knots Altitude 33848 ft
10:43 TOC
10:43 Fuel Weight: 32362 Lb
10:46 TOD
10:46 Fuel Weight: 32076 Lb
10:51 Wind:322º@012 Knots Heading: 202º Ground Speed: 486 Knots Altitude 32755 ft
11:06 Wind:292º@006 Knots Heading: 190º Ground Speed: 510 Knots Altitude 32785 ft
11:21 Wind:287º@011 Knots Heading: 179º Ground Speed: 328 Knots Altitude 11896 ft
11:26 Flaps:1 at 244 Knots
11:27 Flaps:2 at213 Knots
11:28 Flaps:3 at 191 Knots
11:31 Flaps:4 at 182 Knots
11:31 Gear Down: 182 Knots
11:31 Flaps:5 at 181 Knots
11:31 Flaps:6 at 180 Knots
11:31 Flaps:7 at 173 Knots
11:31 Flaps:8 at 151 Knots
11:34 TouchDown:Rate -124 ft/min Speed: 139 Knots
11:34 VATSIM:LEPA 051100Z 26013KT 9999 FEW028 BKN056 23/16 Q1009 NOSIG
11:34 Land
11:34 Wind:260º@012 Knots
11:34 Heading: 237º
11:34 Flight Duration: 02:28
11:34 Landing Weight: 150710 Lbs
11:34 POS N39º 33´ 20´´ E002º 43´ 41´´
11:41 Parking brakes on
11:41 Block to Block Duration: 02:47
11:41 Final Fuel: 28351 Lbls
11:41 Spent Fuel: 17182 Lbls
11:41 Flight Length: 1084 NM
11:41 TOD Land Length: 316 NM

Exportar CSV

Powered by Drupal - Modified by Danger4k